createdAt,value
2022-12-18T00:01:32.440Z,41.20
2022-12-18T00:06:30.900Z,43.80
2022-12-18T00:08:59.169Z,41.60
2022-12-18T00:11:30.535Z,45.30
2022-12-18T00:16:28.741Z,44.20
2022-12-18T00:19:01.077Z,42.90
2022-12-18T00:21:30.449Z,43.10
2022-12-18T00:23:58.864Z,38.70
2022-12-18T00:26:30.922Z,39.10
2022-12-18T00:29:05.598Z,41.00
2022-12-18T00:31:34.019Z,40.00
2022-12-18T00:34:02.143Z,38.90
2022-12-18T00:36:34.474Z,42.40
2022-12-18T00:39:06.025Z,39.40
2022-12-18T00:41:52.782Z,40.00
2022-12-18T00:44:21.024Z,41.20
2022-12-18T00:46:49.711Z,38.10
2022-12-18T00:49:19.994Z,40.00
2022-12-18T00:51:48.745Z,43.90
2022-12-18T00:54:17.295Z,38.40
2022-12-18T00:56:49.442Z,40.70
2022-12-18T00:59:19.097Z,39.60
2022-12-18T01:01:47.619Z,41.00
2022-12-18T01:04:16.268Z,37.40
2022-12-18T01:06:43.707Z,39.30
2022-12-18T01:09:12.087Z,38.60
2022-12-18T01:11:39.445Z,39.30
2022-12-18T01:14:07.622Z,37.40
2022-12-18T01:16:35.154Z,37.60
2022-12-18T01:19:02.648Z,42.00
2022-12-18T01:21:30.089Z,39.00
2022-12-18T01:23:58.442Z,41.00
2022-12-18T01:26:26.714Z,37.30
2022-12-18T01:28:57.271Z,37.80
2022-12-18T01:31:30.886Z,36.20
2022-12-18T01:33:59.324Z,36.60
2022-12-18T01:36:32.389Z,39.70
2022-12-18T01:39:08.341Z,38.00
2022-12-18T01:41:55.256Z,37.90
2022-12-18T01:44:53.701Z,40.60
2022-12-18T01:47:34.428Z,36.50
2022-12-18T01:50:17.723Z,34.40
2022-12-18T01:52:51.407Z,34.10
2022-12-18T01:55:22.195Z,39.60
2022-12-18T01:57:53.849Z,34.40
2022-12-18T02:00:23.549Z,39.70
2022-12-18T02:02:51.276Z,36.00
2022-12-18T02:06:01.353Z,38.20
2022-12-18T02:08:53.904Z,36.50
2022-12-18T02:11:55.438Z,37.40
2022-12-18T02:14:48.162Z,33.50
2022-12-18T02:17:22.662Z,35.00
2022-12-18T02:20:14.296Z,33.40
2022-12-18T02:26:07.897Z,36.00
2022-12-18T02:28:43.776Z,35.70
2022-12-18T02:31:17.194Z,36.10
2022-12-18T02:33:47.182Z,36.60
2022-12-18T02:36:17.563Z,40.20
2022-12-18T02:38:47.099Z,35.10
2022-12-18T02:41:16.627Z,36.80
2022-12-18T02:43:50.828Z,35.50
2022-12-18T02:46:34.096Z,38.50
2022-12-18T02:49:17.896Z,37.30
2022-12-18T02:52:03.157Z,35.50
2022-12-18T02:54:57.897Z,37.20
2022-12-18T02:57:56.672Z,38.30
2022-12-18T03:00:32.995Z,35.90
2022-12-18T03:03:27.933Z,43.00
2022-12-18T03:06:03.298Z,36.70
2022-12-18T03:08:39.011Z,38.00
2022-12-18T03:11:11.155Z,35.50
2022-12-18T03:13:46.402Z,35.90
2022-12-18T03:16:20.807Z,37.20
2022-12-18T03:18:58.279Z,36.50
2022-12-18T03:21:44.203Z,38.20
2022-12-18T03:24:12.611Z,38.40
2022-12-18T03:26:46.156Z,36.70
2022-12-18T03:29:20.451Z,40.00
2022-12-18T03:31:57.103Z,38.80
2022-12-18T03:34:32.170Z,37.50
2022-12-18T03:36:59.579Z,37.60
2022-12-18T03:39:26.956Z,36.80
2022-12-18T03:41:54.290Z,39.10
2022-12-18T03:44:32.840Z,36.50
2022-12-18T03:47:17.735Z,36.30
2022-12-18T03:50:11.089Z,38.70
2022-12-18T03:52:52.153Z,37.10
2022-12-18T03:55:22.376Z,43.10
2022-12-18T03:57:50.822Z,41.40
2022-12-18T04:00:19.941Z,38.80
2022-12-18T04:02:53.256Z,36.50
2022-12-18T04:05:22.851Z,39.20
2022-12-18T04:07:53.399Z,39.00
2022-12-18T04:10:20.961Z,40.10
2022-12-18T04:12:48.958Z,38.50
2022-12-18T04:15:16.377Z,40.40
2022-12-18T04:17:52.604Z,39.40
2022-12-18T04:20:20.047Z,38.30
2022-12-18T04:22:48.772Z,42.90
2022-12-18T04:25:16.334Z,35.80
2022-12-18T04:27:43.713Z,37.70
2022-12-18T04:30:12.007Z,37.40
2022-12-18T04:32:39.431Z,36.20
2022-12-18T04:35:11.503Z,36.30
2022-12-18T04:37:38.936Z,41.70
2022-12-18T04:40:07.142Z,36.90
2022-12-18T04:42:34.625Z,38.00
2022-12-18T04:45:01.972Z,36.70
2022-12-18T04:47:29.410Z,34.90
2022-12-18T04:49:56.972Z,39.30
2022-12-18T04:52:24.635Z,38.70
2022-12-18T04:54:52.290Z,40.00
2022-12-18T04:57:19.813Z,36.60
2022-12-18T04:59:47.178Z,34.80
2022-12-18T05:02:14.596Z,38.30
2022-12-18T05:04:42.044Z,37.60
2022-12-18T05:07:09.399Z,33.60
2022-12-18T05:09:36.794Z,37.30
2022-12-18T05:12:04.335Z,38.20
2022-12-18T05:14:31.727Z,37.90
2022-12-18T05:17:01.081Z,38.50
2022-12-18T05:19:28.791Z,36.20
2022-12-18T05:21:56.292Z,38.10
2022-12-18T05:24:23.712Z,36.60
2022-12-18T05:26:51.409Z,37.10
2022-12-18T05:29:18.766Z,35.70
2022-12-18T05:31:46.326Z,35.50
2022-12-18T05:34:13.851Z,37.80
2022-12-18T05:36:41.959Z,37.50
2022-12-18T05:39:10.459Z,35.90
2022-12-18T05:41:37.805Z,36.80
2022-12-18T05:44:05.164Z,37.00
2022-12-18T05:46:33.679Z,38.40
2022-12-18T05:49:02.168Z,38.20
2022-12-18T05:51:29.610Z,34.40
2022-12-18T05:53:57.120Z,37.00
2022-12-18T05:56:24.643Z,34.20
2022-12-18T05:58:54.459Z,36.10
2022-12-18T06:01:27.500Z,34.00
2022-12-18T06:03:56.629Z,38.50
2022-12-18T06:06:27.833Z,36.30
2022-12-18T06:08:56.556Z,38.80
2022-12-18T06:11:27.091Z,35.60
2022-12-18T06:13:58.995Z,40.20
2022-12-18T06:16:28.734Z,36.90
2022-12-18T06:19:05.306Z,35.20
2022-12-18T06:21:33.693Z,34.20
2022-12-18T06:24:01.404Z,33.50
2022-12-18T06:26:28.908Z,36.30
2022-12-18T06:28:56.526Z,33.60
2022-12-18T06:31:24.126Z,34.40
2022-12-18T06:33:51.872Z,35.70
2022-12-18T06:36:19.293Z,33.50
2022-12-18T06:38:46.988Z,36.10
2022-12-18T06:41:19.950Z,37.00
2022-12-18T06:43:47.637Z,38.20
2022-12-18T06:46:15.112Z,36.50
2022-12-18T06:48:42.571Z,36.50
2022-12-18T06:51:10.281Z,34.30
2022-12-18T06:53:38.086Z,34.80
2022-12-18T06:56:10.576Z,36.50
2022-12-18T06:58:40.116Z,37.30
2022-12-18T07:01:11.557Z,38.20
2022-12-18T07:03:41.508Z,38.50
2022-12-18T07:06:19.098Z,40.10
2022-12-18T07:08:48.174Z,36.30
2022-12-18T07:11:16.801Z,35.80
2022-12-18T07:13:46.292Z,34.10
2022-12-18T07:16:24.827Z,39.80
2022-12-18T07:18:55.707Z,34.70
2022-12-18T07:21:25.277Z,35.30
2022-12-18T07:23:53.140Z,34.40
2022-12-18T07:26:22.540Z,36.70
2022-12-18T07:28:51.065Z,33.80
2022-12-18T07:31:22.245Z,32.80
2022-12-18T07:33:51.761Z,36.40
2022-12-18T07:36:20.187Z,38.00
2022-12-18T07:38:49.253Z,37.10
2022-12-18T07:41:17.524Z,36.00
2022-12-18T07:43:45.135Z,36.10
2022-12-18T07:46:16.785Z,36.20
2022-12-18T07:48:49.463Z,38.30
2022-12-18T07:51:19.489Z,40.10
2022-12-18T07:53:49.569Z,35.00
2022-12-18T07:56:29.520Z,36.80
2022-12-18T07:58:58.862Z,35.40
2022-12-18T08:01:26.663Z,34.80
2022-12-18T08:03:54.247Z,33.40
2022-12-18T08:06:22.518Z,34.90
2022-12-18T08:08:56.473Z,34.80
2022-12-18T08:11:26.557Z,34.20
2022-12-18T08:13:54.328Z,34.20
2022-12-18T08:16:24.276Z,33.10
2022-12-18T08:18:54.186Z,34.10
2022-12-18T08:21:27.286Z,35.90
2022-12-18T08:23:58.369Z,36.00
2022-12-18T08:26:29.034Z,36.50
2022-12-18T08:28:58.748Z,37.60
2022-12-18T08:31:28.210Z,34.30
2022-12-18T08:33:56.368Z,35.20
2022-12-18T08:36:25.815Z,35.90
2022-12-18T08:38:54.753Z,33.20
2022-12-18T08:41:22.378Z,30.70
2022-12-18T08:44:08.777Z,34.50
2022-12-18T08:46:43.106Z,33.50
2022-12-18T08:49:12.010Z,35.30
2022-12-18T08:51:40.839Z,32.60
2022-12-18T08:54:08.651Z,37.60
2022-12-18T08:56:36.183Z,35.40
2022-12-18T08:59:03.833Z,37.00
2022-12-18T09:01:32.004Z,37.30
2022-12-18T09:03:59.830Z,35.30
2022-12-18T09:06:27.561Z,36.90
2022-12-18T09:08:55.310Z,37.70
2022-12-18T09:11:28.755Z,36.50
2022-12-18T09:13:58.010Z,40.40
2022-12-18T09:16:32.266Z,35.10
2022-12-18T09:19:01.001Z,35.60
2022-12-18T09:21:35.899Z,37.80
2022-12-18T09:24:08.859Z,30.90
2022-12-18T09:26:37.348Z,37.50
2022-12-18T09:29:05.097Z,33.70
2022-12-18T09:31:32.562Z,36.10
2022-12-18T09:34:00.124Z,37.30
2022-12-18T09:36:27.796Z,37.80
2022-12-18T09:38:55.842Z,38.00
2022-12-18T09:41:38.593Z,39.90
2022-12-18T09:44:45.017Z,40.30
2022-12-18T09:47:37.650Z,32.30
2022-12-18T09:50:22.950Z,36.80
2022-12-18T09:52:54.716Z,36.20
2022-12-18T09:55:37.370Z,39.80
2022-12-18T09:58:17.641Z,40.70
2022-12-18T10:00:45.228Z,39.20
2022-12-18T10:03:16.964Z,39.00
2022-12-18T10:06:08.684Z,36.60
2022-12-18T10:11:32.874Z,36.30
2022-12-18T10:14:31.598Z,37.20
2022-12-18T10:17:47.580Z,37.50
2022-12-18T10:20:42.441Z,34.60
2022-12-18T10:23:28.052Z,36.10
2022-12-18T10:26:04.958Z,34.60
2022-12-18T10:28:47.624Z,40.30
2022-12-18T10:31:24.536Z,37.20
2022-12-18T10:33:55.282Z,37.20
2022-12-18T10:36:25.648Z,34.80
2022-12-18T10:38:53.266Z,33.10
2022-12-18T10:41:23.048Z,30.90
2022-12-18T10:44:24.370Z,33.90
2022-12-18T10:46:59.480Z,33.40
2022-12-18T10:49:30.610Z,33.90
2022-12-18T10:52:23.326Z,35.50
2022-12-18T10:54:56.008Z,37.70
2022-12-18T10:57:37.984Z,38.80
2022-12-18T11:00:36.907Z,33.80
2022-12-18T11:03:10.087Z,36.40
2022-12-18T11:05:37.967Z,37.40
2022-12-18T11:08:05.572Z,35.40
2022-12-18T11:10:38.412Z,33.80
2022-12-18T11:13:25.920Z,33.90
2022-12-18T11:15:53.708Z,35.80
2022-12-18T11:18:34.965Z,30.50
2022-12-18T11:21:10.476Z,36.10
2022-12-18T11:23:49.916Z,34.70
2022-12-18T11:26:18.069Z,32.50
2022-12-18T11:28:50.418Z,33.70
2022-12-18T11:31:29.005Z,33.20
2022-12-18T11:34:28.236Z,34.00
2022-12-18T11:36:53.770Z,32.50
2022-12-18T11:40:09.155Z,34.70
2022-12-18T11:43:02.240Z,33.40
2022-12-18T11:45:36.495Z,32.30
2022-12-18T11:48:19.270Z,32.20
2022-12-18T11:50:56.655Z,35.80
2022-12-18T11:53:27.118Z,33.70
2022-12-18T11:56:31.295Z,31.60
2022-12-18T11:59:43.615Z,31.70
2022-12-18T12:03:04.862Z,34.30
2022-12-18T12:05:53.027Z,32.80
2022-12-18T12:08:45.545Z,38.30
2022-12-18T12:11:22.596Z,34.70
2022-12-18T12:14:22.336Z,41.00
2022-12-18T12:17:08.263Z,33.20
2022-12-18T12:19:47.188Z,36.20
2022-12-18T12:22:32.837Z,36.80
2022-12-18T12:25:18.619Z,35.30
2022-12-18T12:28:53.832Z,35.70
2022-12-18T12:31:35.230Z,34.80
2022-12-18T12:37:07.937Z,30.90
2022-12-18T12:39:41.499Z,35.30
2022-12-18T12:42:56.167Z,33.30
2022-12-18T12:45:42.519Z,34.20
2022-12-18T12:48:25.843Z,44.60
2022-12-18T12:50:55.329Z,42.40
2022-12-18T12:53:30.550Z,39.60
2022-12-18T12:55:59.304Z,35.80
2022-12-18T12:58:46.651Z,34.30
2022-12-18T13:01:38.702Z,33.70
2022-12-18T13:04:34.129Z,35.70
2022-12-18T13:07:19.172Z,36.10
2022-12-18T13:10:27.047Z,32.30
2022-12-18T13:13:21.186Z,33.60
2022-12-18T13:16:08.009Z,34.00
2022-12-18T13:18:36.522Z,31.50
2022-12-18T13:21:32.475Z,36.70
2022-12-18T13:24:27.386Z,31.00
2022-12-18T13:26:55.363Z,36.00
2022-12-18T13:29:45.129Z,33.90
2022-12-18T13:32:24.274Z,30.20
2022-12-18T13:35:31.388Z,31.70
2022-12-18T13:37:58.784Z,31.20
2022-12-18T13:40:41.688Z,29.60
2022-12-18T13:43:21.174Z,27.10
2022-12-18T13:46:19.064Z,32.90
2022-12-18T13:48:56.879Z,34.30
2022-12-18T13:51:26.359Z,32.30
2022-12-18T13:54:48.117Z,34.20
2022-12-18T13:57:35.021Z,29.90
2022-12-18T14:00:29.861Z,33.00
2022-12-18T14:03:01.423Z,31.00
2022-12-18T14:05:32.879Z,31.40
2022-12-18T14:08:06.390Z,29.50
2022-12-18T14:10:47.829Z,33.90
2022-12-18T14:13:32.460Z,31.40
2022-12-18T14:16:05.323Z,34.30
2022-12-18T14:18:40.822Z,36.20
2022-12-18T14:21:22.033Z,29.90
2022-12-18T14:23:49.828Z,31.00
2022-12-18T14:26:30.276Z,33.30
2022-12-18T14:29:02.278Z,31.10
2022-12-18T14:31:32.783Z,31.90
2022-12-18T14:34:00.222Z,31.50
2022-12-18T14:36:30.427Z,29.50
2022-12-18T14:39:00.285Z,33.00
2022-12-18T14:41:29.500Z,33.10
2022-12-18T14:44:07.472Z,32.30
2022-12-18T14:46:43.337Z,27.60
2022-12-18T14:49:31.001Z,33.80
2022-12-18T14:52:01.401Z,35.30
2022-12-18T14:54:30.786Z,31.20
2022-12-18T14:57:04.571Z,28.80
2022-12-18T14:59:32.892Z,26.90
2022-12-18T15:02:21.827Z,29.50
2022-12-18T15:05:14.977Z,29.80
2022-12-18T15:07:55.099Z,31.90
2022-12-18T15:10:31.107Z,30.60
2022-12-18T15:13:00.692Z,30.90
2022-12-18T15:15:34.266Z,24.10
2022-12-18T15:18:11.345Z,28.20
2022-12-18T15:20:57.926Z,29.60
2022-12-18T15:23:27.237Z,29.00
2022-12-18T15:26:10.070Z,27.30
2022-12-18T15:28:45.375Z,26.90
2022-12-18T15:31:13.263Z,30.30
2022-12-18T15:34:04.654Z,28.40
2022-12-18T15:36:32.383Z,28.50
2022-12-18T15:39:05.115Z,38.50
2022-12-18T15:41:36.723Z,28.60
2022-12-18T15:44:24.538Z,27.90
2022-12-18T15:46:52.010Z,26.10
2022-12-18T15:49:19.460Z,28.20
2022-12-18T15:51:58.329Z,26.40
2022-12-18T15:54:44.777Z,32.60
2022-12-18T15:57:25.239Z,26.60
2022-12-18T15:59:57.321Z,28.00
2022-12-18T16:02:25.800Z,25.60
2022-12-18T16:04:54.560Z,28.70
2022-12-18T16:07:24.669Z,30.70
2022-12-18T16:09:53.408Z,27.20
2022-12-18T16:12:23.806Z,25.00
2022-12-18T16:14:51.416Z,27.70
2022-12-18T16:17:19.038Z,28.60
2022-12-18T16:19:46.752Z,32.20
2022-12-18T16:22:27.814Z,27.70
2022-12-18T16:24:57.444Z,29.10
2022-12-18T16:27:25.648Z,28.30
2022-12-18T16:29:53.043Z,26.70
2022-12-18T16:32:22.499Z,28.00
2022-12-18T16:34:50.987Z,26.90
2022-12-18T16:37:18.469Z,25.10
2022-12-18T16:39:46.008Z,26.70
2022-12-18T16:42:20.637Z,27.10
2022-12-18T16:44:50.164Z,23.90
2022-12-18T16:47:18.146Z,25.80
2022-12-18T16:49:46.449Z,26.70
2022-12-18T16:52:14.611Z,28.10
2022-12-18T16:54:42.415Z,28.30
2022-12-18T16:57:15.049Z,28.50
2022-12-18T16:59:42.591Z,29.20
2022-12-18T17:02:22.836Z,27.70
2022-12-18T17:04:57.266Z,27.50
2022-12-18T17:07:25.886Z,30.40
2022-12-18T17:09:54.314Z,30.70
2022-12-18T17:12:22.880Z,29.00
2022-12-18T17:14:50.500Z,30.20
2022-12-18T17:17:21.921Z,26.70
2022-12-18T17:19:51.963Z,31.80
2022-12-18T17:22:21.245Z,31.10
2022-12-18T17:24:49.130Z,31.80
2022-12-18T17:27:16.607Z,30.00
2022-12-18T17:29:47.698Z,28.90
2022-12-18T17:32:17.394Z,31.00
2022-12-18T17:34:44.941Z,28.90
2022-12-18T17:37:12.633Z,29.70
2022-12-18T17:39:40.566Z,29.40
2022-12-18T17:42:10.656Z,30.90
2022-12-18T17:44:43.508Z,27.50
2022-12-18T17:47:13.102Z,28.70
2022-12-18T17:49:40.807Z,26.20
2022-12-18T17:52:08.465Z,26.70
2022-12-18T17:54:39.759Z,30.10
2022-12-18T17:59:36.478Z,26.30
2022-12-18T18:02:04.183Z,25.10
2022-12-18T18:04:32.331Z,29.00
2022-12-18T18:06:59.730Z,31.00
2022-12-18T18:09:27.500Z,31.40
2022-12-18T18:12:13.404Z,43.90
2022-12-18T18:14:41.024Z,36.60
2022-12-18T18:17:08.523Z,35.40
2022-12-18T18:19:36.077Z,29.00
2022-12-18T18:22:03.779Z,31.70
2022-12-18T18:24:33.622Z,31.90
2022-12-18T18:27:01.092Z,29.60
2022-12-18T18:29:30.614Z,30.90
2022-12-18T18:31:59.259Z,29.80
2022-12-18T18:34:30.469Z,38.30
2022-12-18T18:37:01.062Z,35.40
2022-12-18T18:39:29.340Z,35.90
2022-12-18T18:41:56.933Z,40.50
2022-12-18T18:44:25.986Z,41.10
2022-12-18T18:46:56.584Z,33.30
2022-12-18T18:49:27.680Z,36.60
2022-12-18T18:54:25.596Z,39.00
2022-12-18T18:59:40.432Z,38.30
2022-12-18T19:02:13.315Z,36.70
2022-12-18T19:04:45.648Z,32.90
2022-12-18T19:07:22.299Z,34.00
2022-12-18T19:10:04.411Z,32.50
2022-12-18T19:12:53.985Z,33.10
2022-12-18T19:15:22.004Z,34.40
2022-12-18T19:17:49.676Z,38.10
2022-12-18T19:20:17.660Z,31.90
2022-12-18T19:22:53.824Z,29.20
2022-12-18T19:25:38.125Z,35.00
2022-12-18T19:28:09.468Z,31.70
2022-12-18T19:30:49.175Z,32.20
2022-12-18T19:33:44.648Z,32.00
2022-12-18T19:36:35.515Z,33.10
2022-12-18T19:39:13.201Z,33.50
2022-12-18T19:41:41.734Z,33.90
2022-12-18T19:44:12.963Z,33.20
2022-12-18T19:46:41.949Z,34.90
2022-12-18T19:49:18.064Z,33.20
2022-12-18T19:51:46.315Z,32.00
2022-12-18T19:54:16.939Z,30.90
2022-12-18T19:56:46.250Z,29.80
2022-12-18T19:59:14.131Z,31.80
2022-12-18T20:01:42.103Z,33.30
2022-12-18T20:04:09.829Z,30.00
2022-12-18T20:06:51.772Z,33.10
2022-12-18T20:09:20.145Z,32.00
2022-12-18T20:11:48.170Z,32.50
2022-12-18T20:14:22.321Z,29.60
2022-12-18T20:16:52.423Z,35.40
2022-12-18T20:19:21.047Z,33.00
2022-12-18T20:21:48.589Z,33.80
2022-12-18T20:24:16.062Z,34.80
2022-12-18T20:26:43.640Z,31.80
2022-12-18T20:29:11.171Z,35.70
2022-12-18T20:31:38.585Z,38.50
2022-12-18T20:34:07.025Z,33.00
2022-12-18T20:36:36.215Z,35.90
2022-12-18T20:39:06.446Z,36.80
2022-12-18T20:41:38.085Z,37.90
2022-12-18T20:46:54.509Z,36.10
2022-12-18T20:49:23.386Z,32.00
2022-12-18T20:51:53.831Z,32.50
2022-12-18T20:54:23.052Z,29.30
2022-12-18T20:56:51.512Z,29.70
2022-12-18T20:59:19.847Z,31.70
2022-12-18T21:01:48.946Z,30.40
2022-12-18T21:04:19.566Z,32.60
2022-12-18T21:06:54.182Z,33.20
2022-12-18T21:09:28.266Z,31.10
2022-12-18T21:12:22.213Z,28.10
2022-12-18T21:14:49.663Z,31.50
2022-12-18T21:17:17.675Z,30.40
2022-12-18T21:19:45.253Z,30.20
2022-12-18T21:22:13.871Z,30.10
2022-12-18T21:24:41.658Z,29.30
2022-12-18T21:27:09.130Z,31.90
2022-12-18T21:29:40.468Z,30.80
2022-12-18T21:32:09.217Z,32.60
2022-12-18T21:34:37.220Z,32.80
2022-12-18T21:37:04.902Z,40.20
2022-12-18T21:39:32.720Z,35.90
2022-12-18T21:42:19.158Z,42.20
2022-12-18T21:44:49.034Z,32.70
2022-12-18T21:47:22.814Z,27.60
2022-12-18T21:49:54.032Z,26.70
2022-12-18T21:52:32.282Z,25.60
2022-12-18T21:55:09.015Z,24.10
2022-12-18T21:57:40.078Z,27.60
2022-12-18T22:00:19.240Z,22.40
2022-12-18T22:03:02.319Z,31.40
2022-12-18T22:05:36.473Z,21.50
2022-12-18T22:08:04.029Z,22.10
2022-12-18T22:10:31.380Z,21.80
2022-12-18T22:12:58.828Z,22.30
2022-12-18T22:15:26.160Z,20.00
2022-12-18T22:17:59.939Z,25.70
2022-12-18T22:20:29.981Z,21.80
2022-12-18T22:22:58.211Z,20.90
2022-12-18T22:25:25.605Z,22.00
2022-12-18T22:28:11.825Z,20.50
2022-12-18T22:30:39.302Z,24.00
2022-12-18T22:33:06.672Z,23.00
2022-12-18T22:35:34.076Z,20.90
2022-12-18T22:38:01.813Z,26.80
2022-12-18T22:40:29.880Z,19.60
2022-12-18T22:42:57.625Z,24.60
2022-12-18T22:45:26.546Z,23.40
2022-12-18T22:47:54.147Z,19.00
2022-12-18T22:50:21.735Z,21.30
2022-12-18T22:52:49.095Z,22.50
2022-12-18T22:55:16.442Z,21.40
2022-12-18T22:57:43.842Z,22.50
2022-12-18T23:00:16.698Z,18.80
2022-12-18T23:02:46.212Z,22.60
2022-12-18T23:05:13.651Z,23.20
2022-12-18T23:07:41.068Z,19.10
2022-12-18T23:10:09.065Z,20.20
2022-12-18T23:12:37.579Z,19.40
2022-12-18T23:15:06.212Z,18.20
2022-12-18T23:17:33.586Z,21.20
2022-12-18T23:20:01.753Z,20.40
2022-12-18T23:22:30.459Z,23.70
2022-12-18T23:24:57.825Z,21.40
2022-12-18T23:27:25.170Z,18.70
2022-12-18T23:29:52.476Z,20.30
2022-12-18T23:32:21.164Z,19.80
2022-12-18T23:34:48.626Z,22.10
2022-12-18T23:37:35.354Z,24.20
2022-12-18T23:40:04.001Z,17.90
2022-12-18T23:42:31.312Z,22.20
2022-12-18T23:44:58.594Z,18.10
2022-12-18T23:47:27.129Z,18.90
2022-12-18T23:49:54.829Z,20.10
2022-12-18T23:52:22.298Z,17.20
2022-12-18T23:54:49.705Z,17.30
2022-12-18T23:57:17.273Z,19.60
2022-12-18T23:59:47.008Z,22.60
